sensor_id;sensor_type;location;lat;lon;timestamp;pressure;altitude;pressure_sealevel;temperature;humidity
6567;BME280;3317;43.994;22.878;2022-08-27T00:00:47;100308.97;;;27.98;46.36
6567;BME280;3317;43.994;22.878;2022-08-27T00:03:16;100305.34;;;27.97;46.14
6567;BME280;3317;43.994;22.878;2022-08-27T00:05:43;100303.66;;;27.96;46.85
6567;BME280;3317;43.994;22.878;2022-08-27T00:08:11;100299.78;;;27.92;46.82
6567;BME280;3317;43.994;22.878;2022-08-27T00:10:42;100308.69;;;27.89;47.52
6567;BME280;3317;43.994;22.878;2022-08-27T00:13:09;100317.31;;;27.88;47.67
6567;BME280;3317;43.994;22.878;2022-08-27T00:15:36;100315.66;;;27.87;47.46
6567;BME280;3317;43.994;22.878;2022-08-27T00:18:04;100303.72;;;27.76;48.17
6567;BME280;3317;43.994;22.878;2022-08-27T00:20:32;100305.38;;;27.77;48.00
6567;BME280;3317;43.994;22.878;2022-08-27T00:22:59;100309.56;;;27.79;48.08
6567;BME280;3317;43.994;22.878;2022-08-27T00:25:27;100307.03;;;27.78;47.59
6567;BME280;3317;43.994;22.878;2022-08-27T00:27:56;100309.53;;;27.74;47.88
6567;BME280;3317;43.994;22.878;2022-08-27T00:30:25;100308.19;;;27.72;48.41
6567;BME280;3317;43.994;22.878;2022-08-27T00:32:53;100248.06;;;27.29;48.69
6567;BME280;3317;43.994;22.878;2022-08-27T00:35:21;100308.47;;;27.65;48.78
6567;BME280;3317;43.994;22.878;2022-08-27T00:37:48;100309.00;;;27.62;48.68
6567;BME280;3317;43.994;22.878;2022-08-27T00:40:19;100283.09;;;27.40;48.88
6567;BME280;3317;43.994;22.878;2022-08-27T00:42:47;100322.94;;;27.57;49.08
6567;BME280;3317;43.994;22.878;2022-08-27T00:45:20;100326.81;;;27.55;49.10
6567;BME280;3317;43.994;22.878;2022-08-27T00:47:53;100338.22;;;27.54;48.51
6567;BME280;3317;43.994;22.878;2022-08-27T00:50:29;100335.69;;;27.42;47.83
6567;BME280;3317;43.994;22.878;2022-08-27T00:53:01;100337.91;;;27.45;48.90
6567;BME280;3317;43.994;22.878;2022-08-27T00:55:32;100334.56;;;27.38;49.06
6567;BME280;3317;43.994;22.878;2022-08-27T00:58:07;100332.06;;;27.36;48.77
6567;BME280;3317;43.994;22.878;2022-08-27T01:00:37;100288.38;;;27.06;49.69
6567;BME280;3317;43.994;22.878;2022-08-27T01:03:05;100339.03;;;27.29;50.33
6567;BME280;3317;43.994;22.878;2022-08-27T01:05:33;100327.91;;;27.29;49.09
6567;BME280;3317;43.994;22.878;2022-08-27T01:08:05;100331.22;;;27.31;47.11
6567;BME280;3317;43.994;22.878;2022-08-27T01:10:33;100324.00;;;27.30;47.83
6567;BME280;3317;43.994;22.878;2022-08-27T01:13:01;100336.78;;;27.25;49.82
6567;BME280;3317;43.994;22.878;2022-08-27T01:15:29;100344.81;;;27.17;51.57
6567;BME280;3317;43.994;22.878;2022-08-27T01:17:58;100329.81;;;27.07;51.36
6567;BME280;3317;43.994;22.878;2022-08-27T01:20:32;100340.09;;;27.07;50.53
6567;BME280;3317;43.994;22.878;2022-08-27T01:23:09;100360.91;;;26.94;52.96
6567;BME280;3317;43.994;22.878;2022-08-27T01:25:40;100354.09;;;26.59;54.12
6567;BME280;3317;43.994;22.878;2022-08-27T01:28:08;100350.13;;;26.49;53.15
6567;BME280;3317;43.994;22.878;2022-08-27T01:30:38;100344.78;;;26.32;53.63
6567;BME280;3317;43.994;22.878;2022-08-27T01:33:08;100371.41;;;26.23;55.50
6567;BME280;3317;43.994;22.878;2022-08-27T01:35:35;100353.78;;;26.12;54.97
6567;BME280;3317;43.994;22.878;2022-08-27T01:38:02;100364.34;;;26.10;54.93
6567;BME280;3317;43.994;22.878;2022-08-27T01:40:30;100365.47;;;26.14;54.45
6567;BME280;3317;43.994;22.878;2022-08-27T01:42:59;100344.34;;;26.08;52.39
6567;BME280;3317;43.994;22.878;2022-08-27T01:45:30;100365.00;;;26.22;53.31
6567;BME280;3317;43.994;22.878;2022-08-27T01:47:58;100347.44;;;26.17;54.17
6567;BME280;3317;43.994;22.878;2022-08-27T01:50:27;100355.56;;;26.28;54.55
6567;BME280;3317;43.994;22.878;2022-08-27T01:52:56;100324.66;;;26.09;54.70
6567;BME280;3317;43.994;22.878;2022-08-27T01:55:27;100364.78;;;26.34;55.12
6567;BME280;3317;43.994;22.878;2022-08-27T01:57:54;100365.38;;;26.36;54.55
6567;BME280;3317;43.994;22.878;2022-08-27T02:00:25;100362.88;;;26.40;54.73
6567;BME280;3317;43.994;22.878;2022-08-27T02:02:52;100360.38;;;26.38;55.26
6567;BME280;3317;43.994;22.878;2022-08-27T02:05:21;100358.41;;;26.39;55.07
6567;BME280;3317;43.994;22.878;2022-08-27T02:07:49;100333.94;;;26.31;55.08
6567;BME280;3317;43.994;22.878;2022-08-27T02:10:19;100355.94;;;26.42;54.97
6567;BME280;3317;43.994;22.878;2022-08-27T02:12:48;100348.97;;;26.35;54.55
6567;BME280;3317;43.994;22.878;2022-08-27T02:15:19;100355.13;;;26.42;54.69
6567;BME280;3317;43.994;22.878;2022-08-27T02:17:50;100353.72;;;26.39;54.48
6567;BME280;3317;43.994;22.878;2022-08-27T02:20:18;100363.72;;;26.40;54.28
6567;BME280;3317;43.994;22.878;2022-08-27T02:22:47;100358.97;;;26.41;53.92
6567;BME280;3317;43.994;22.878;2022-08-27T02:25:15;100353.72;;;26.39;54.26
6567;BME280;3317;43.994;22.878;2022-08-27T02:27:45;100349.81;;;26.35;54.46
6567;BME280;3317;43.994;22.878;2022-08-27T02:30:15;100352.84;;;26.34;54.17
6567;BME280;3317;43.994;22.878;2022-08-27T02:32:42;100306.53;;;26.01;54.11
6567;BME280;3317;43.994;22.878;2022-08-27T02:35:13;100363.97;;;26.34;53.73
6567;BME280;3317;43.994;22.878;2022-08-27T02:37:41;100366.19;;;26.32;53.80
6567;BME280;3317;43.994;22.878;2022-08-27T02:40:10;100362.25;;;26.27;53.72
6567;BME280;3317;43.994;22.878;2022-08-27T02:42:41;100356.13;;;26.25;53.80
6567;BME280;3317;43.994;22.878;2022-08-27T02:45:09;100361.69;;;26.25;53.38
6567;BME280;3317;43.994;22.878;2022-08-27T02:47:36;100298.66;;;25.88;53.31
6567;BME280;3317;43.994;22.878;2022-08-27T02:50:04;100339.03;;;26.06;53.79
6567;BME280;3317;43.994;22.878;2022-08-27T02:52:33;100362.44;;;26.15;53.25
6567;BME280;3317;43.994;22.878;2022-08-27T02:55:01;100358.81;;;26.15;53.46
6567;BME280;3317;43.994;22.878;2022-08-27T02:57:31;100362.69;;;26.14;53.36
6567;BME280;3317;43.994;22.878;2022-08-27T02:59:59;100365.47;;;26.14;53.69
6567;BME280;3317;43.994;22.878;2022-08-27T03:02:26;100369.34;;;26.13;53.14
6567;BME280;3317;43.994;22.878;2022-08-27T03:04:53;100372.13;;;26.13;52.93
6567;BME280;3317;43.994;22.878;2022-08-27T03:07:21;100357.41;;;26.12;52.82
6567;BME280;3317;43.994;22.878;2022-08-27T03:09:50;100361.00;;;26.13;52.86
6567;BME280;3317;43.994;22.878;2022-08-27T03:12:17;100366.00;;;26.11;53.28
6567;BME280;3317;43.994;22.878;2022-08-27T03:14:44;100366.84;;;26.11;52.87
6567;BME280;3317;43.994;22.878;2022-08-27T03:17:12;100366.00;;;26.11;52.13
6567;BME280;3317;43.994;22.878;2022-08-27T03:19:56;100374.03;;;26.07;52.42
6567;BME280;3317;43.994;22.878;2022-08-27T03:22:23;100376.81;;;26.07;52.15
6567;BME280;3317;43.994;22.878;2022-08-27T03:24:54;100349.22;;;25.90;53.22
6567;BME280;3317;43.994;22.878;2022-08-27T03:27:21;100373.16;;;26.01;53.31
6567;BME280;3317;43.994;22.878;2022-08-27T03:29:48;100388.13;;;26.00;52.91
6567;BME280;3317;43.994;22.878;2022-08-27T03:32:15;100372.00;;;25.92;53.43
6567;BME280;3317;43.994;22.878;2022-08-27T03:34:41;100361.63;;;25.82;53.73
6567;BME280;3317;43.994;22.878;2022-08-27T03:37:10;100376.97;;;25.90;54.00
6567;BME280;3317;43.994;22.878;2022-08-27T03:39:37;100376.38;;;25.88;53.99
6567;BME280;3317;43.994;22.878;2022-08-27T03:42:06;100377.72;;;25.80;53.90
6567;BME280;3317;43.994;22.878;2022-08-27T03:44:33;100385.25;;;25.85;53.79
6567;BME280;3317;43.994;22.878;2022-08-27T03:47:01;100393.00;;;25.83;54.43
6567;BME280;3317;43.994;22.878;2022-08-27T03:49:28;100330.22;;;25.44;54.34
6567;BME280;3317;43.994;22.878;2022-08-27T03:51:57;100383.81;;;25.77;53.82
6567;BME280;3317;43.994;22.878;2022-08-27T03:54:25;100385.16;;;25.75;54.26
6567;BME280;3317;43.994;22.878;2022-08-27T03:56:52;100345.19;;;25.43;54.03
6567;BME280;3317;43.994;22.878;2022-08-27T03:59:20;100390.41;;;25.71;53.51
6567;BME280;3317;43.994;22.878;2022-08-27T04:01:47;100390.09;;;25.67;54.27
6567;BME280;3317;43.994;22.878;2022-08-27T04:04:16;100402.31;;;25.66;54.20
6567;BME280;3317;43.994;22.878;2022-08-27T04:06:44;100399.22;;;25.63;54.08
6567;BME280;3317;43.994;22.878;2022-08-27T04:09:11;100402.25;;;25.61;55.24
6567;BME280;3317;43.994;22.878;2022-08-27T04:11:39;100396.13;;;25.59;55.09
6567;BME280;3317;43.994;22.878;2022-08-27T04:14:07;100402.22;;;25.56;55.38
6567;BME280;3317;43.994;22.878;2022-08-27T04:16:36;100390.53;;;25.54;55.31
6567;BME280;3317;43.994;22.878;2022-08-27T04:19:04;100404.44;;;25.59;55.67
6567;BME280;3317;43.994;22.878;2022-08-27T04:21:32;100413.34;;;25.61;55.82
6567;BME280;3317;43.994;22.878;2022-08-27T04:24:00;100345.25;;;25.21;54.95
6567;BME280;3317;43.994;22.878;2022-08-27T04:26:28;100407.78;;;25.61;55.35
6567;BME280;3317;43.994;22.878;2022-08-27T04:28:56;100406.19;;;25.65;55.08
6567;BME280;3317;43.994;22.878;2022-08-27T04:31:23;100405.91;;;25.67;55.66
6567;BME280;3317;43.994;22.878;2022-08-27T04:33:52;100415.66;;;25.69;55.95
6567;BME280;3317;43.994;22.878;2022-08-27T04:36:19;100420.13;;;25.76;55.60
6567;BME280;3317;43.994;22.878;2022-08-27T04:38:46;100426.28;;;25.78;55.33
6567;BME280;3317;43.994;22.878;2022-08-27T04:41:13;100438.50;;;25.82;55.43
6567;BME280;3317;43.994;22.878;2022-08-27T04:43:49;100422.66;;;25.77;54.88
6567;BME280;3317;43.994;22.878;2022-08-27T04:46:21;100438.03;;;25.90;55.01
6567;BME280;3317;43.994;22.878;2022-08-27T04:48:48;100443.06;;;25.93;55.50
6567;BME280;3317;43.994;22.878;2022-08-27T04:51:18;100381.69;;;25.57;55.56
6567;BME280;3317;43.994;22.878;2022-08-27T04:53:45;100445.31;;;26.01;55.43
6567;BME280;3317;43.994;22.878;2022-08-27T04:56:14;100439.56;;;26.08;54.80
6567;BME280;3317;43.994;22.878;2022-08-27T04:58:42;100429.84;;;26.06;54.92
6567;BME280;3317;43.994;22.878;2022-08-27T05:01:14;100437.16;;;26.17;54.76
6567;BME280;3317;43.994;22.878;2022-08-27T05:03:41;100449.44;;;26.26;54.52
6567;BME280;3317;43.994;22.878;2022-08-27T05:06:10;100440.63;;;26.35;53.96
6567;BME280;3317;43.994;22.878;2022-08-27T05:08:40;100438.72;;;26.40;53.88
6567;BME280;3317;43.994;22.878;2022-08-27T05:11:09;100442.63;;;26.45;53.50
6567;BME280;3317;43.994;22.878;2022-08-27T05:13:36;100445.16;;;26.51;53.31
6567;BME280;3317;43.994;22.878;2022-08-27T05:16:05;100435.16;;;26.50;52.74
6567;BME280;3317;43.994;22.878;2022-08-27T05:18:33;100453.56;;;26.62;52.98
6567;BME280;3317;43.994;22.878;2022-08-27T05:21:02;100453.56;;;26.67;53.40
6567;BME280;3317;43.994;22.878;2022-08-27T05:23:30;100440.53;;;26.67;54.15
6567;BME280;3317;43.994;22.878;2022-08-27T05:25:58;100435.81;;;26.68;54.81
6567;BME280;3317;43.994;22.878;2022-08-27T05:28:27;100447.81;;;26.79;54.93
6567;BME280;3317;43.994;22.878;2022-08-27T05:31:02;100447.56;;;26.85;54.96
6567;BME280;3317;43.994;22.878;2022-08-27T05:33:29;100459.91;;;27.00;54.76
6567;BME280;3317;43.994;22.878;2022-08-27T05:35:57;100454.09;;;27.12;54.11
6567;BME280;3317;43.994;22.878;2022-08-27T05:38:27;100460.81;;;27.21;53.00
6567;BME280;3317;43.994;22.878;2022-08-27T05:41:04;100457.25;;;27.36;52.87
6567;BME280;3317;43.994;22.878;2022-08-27T05:43:32;100443.91;;;27.33;52.51
6567;BME280;3317;43.994;22.878;2022-08-27T05:46:02;100472.34;;;27.56;52.66
6567;BME280;3317;43.994;22.878;2022-08-27T05:48:32;100466.81;;;27.72;52.20
6567;BME280;3317;43.994;22.878;2022-08-27T05:51:07;100476.31;;;27.86;52.01
6567;BME280;3317;43.994;22.878;2022-08-27T05:53:36;100464.63;;;28.00;51.65
6567;BME280;3317;43.994;22.878;2022-08-27T05:56:10;100471.84;;;28.16;51.31
6567;BME280;3317;43.994;22.878;2022-08-27T05:58:38;100466.28;;;28.21;51.15
6567;BME280;3317;43.994;22.878;2022-08-27T06:01:22;100480.75;;;28.44;50.78
6567;BME280;3317;43.994;22.878;2022-08-27T06:03:50;100461.53;;;28.48;50.13
6567;BME280;3317;43.994;22.878;2022-08-27T06:06:20;100481.81;;;28.74;50.05
6567;BME280;3317;43.994;22.878;2022-08-27T06:08:48;100475.41;;;28.89;50.60
6567;BME280;3317;43.994;22.878;2022-08-27T06:11:19;100456.09;;;28.98;51.21
6567;BME280;3317;43.994;22.878;2022-08-27T06:13:47;100467.22;;;29.08;52.03
6567;BME280;3317;43.994;22.878;2022-08-27T06:16:17;100478.03;;;29.26;51.30
6567;BME280;3317;43.994;22.878;2022-08-27T06:18:45;100420.94;;;29.07;51.26
6567;BME280;3317;43.994;22.878;2022-08-27T06:21:14;100486.56;;;29.55;51.23
6567;BME280;3317;43.994;22.878;2022-08-27T06:23:41;100469.50;;;29.62;51.11
6567;BME280;3317;43.994;22.878;2022-08-27T06:26:11;100428.03;;;29.40;50.68
6567;BME280;3317;43.994;22.878;2022-08-27T06:28:39;100480.75;;;29.86;50.51
6567;BME280;3317;43.994;22.878;2022-08-27T06:31:11;100473.97;;;29.98;50.34
6567;BME280;3317;43.994;22.878;2022-08-27T06:33:39;100460.22;;;30.12;49.79
6567;BME280;3317;43.994;22.878;2022-08-27T06:36:08;100475.09;;;30.31;49.50
6567;BME280;3317;43.994;22.878;2022-08-27T06:38:37;100474.41;;;30.45;49.19
6567;BME280;3317;43.994;22.878;2022-08-27T06:41:07;100479.00;;;30.65;48.30
6567;BME280;3317;43.994;22.878;2022-08-27T06:43:36;100487.81;;;30.77;47.34
6567;BME280;3317;43.994;22.878;2022-08-27T06:46:07;100479.91;;;30.85;47.27
6567;BME280;3317;43.994;22.878;2022-08-27T06:48:35;100490.41;;;30.93;47.20
6567;BME280;3317;43.994;22.878;2022-08-27T06:51:07;100482.75;;;31.04;47.18
6567;BME280;3317;43.994;22.878;2022-08-27T06:53:37;100483.16;;;31.16;46.92
6567;BME280;3317;43.994;22.878;2022-08-27T06:56:04;100480.72;;;31.34;46.33
6567;BME280;3317;43.994;22.878;2022-08-27T06:58:32;100478.81;;;31.49;45.46
6567;BME280;3317;43.994;22.878;2022-08-27T07:00:59;100483.66;;;31.62;45.44
6567;BME280;3317;43.994;22.878;2022-08-27T07:03:30;100484.81;;;31.80;44.84
6567;BME280;3317;43.994;22.878;2022-08-27T07:06:03;100478.97;;;31.96;44.69
6567;BME280;3317;43.994;22.878;2022-08-27T07:08:30;100480.53;;;32.21;44.47
6567;BME280;3317;43.994;22.878;2022-08-27T07:10:58;100482.56;;;32.35;44.17
6567;BME280;3317;43.994;22.878;2022-08-27T07:13:26;100480.91;;;32.48;43.57
6567;BME280;3317;43.994;22.878;2022-08-27T07:16:03;100473.03;;;32.64;43.07
6567;BME280;3317;43.994;22.878;2022-08-27T07:18:33;100471.28;;;32.82;42.54
6567;BME280;3317;43.994;22.878;2022-08-27T07:21:00;100473.72;;;33.03;42.36
6567;BME280;3317;43.994;22.878;2022-08-27T07:23:29;100471.59;;;33.22;42.25
6567;BME280;3317;43.994;22.878;2022-08-27T07:25:56;100479.06;;;33.41;41.87
6567;BME280;3317;43.994;22.878;2022-08-27T07:28:24;100463.88;;;33.42;40.70
6567;BME280;3317;43.994;22.878;2022-08-27T07:30:53;100487.44;;;33.69;39.94
6567;BME280;3317;43.994;22.878;2022-08-27T07:33:20;100480.28;;;33.85;40.02
6567;BME280;3317;43.994;22.878;2022-08-27T07:35:48;100476.81;;;34.03;39.85
6567;BME280;3317;43.994;22.878;2022-08-27T07:38:16;100474.09;;;34.20;40.00
6567;BME280;3317;43.994;22.878;2022-08-27T07:40:44;100474.84;;;34.35;39.28
6567;BME280;3317;43.994;22.878;2022-08-27T07:43:11;100474.25;;;34.47;38.68
6567;BME280;3317;43.994;22.878;2022-08-27T07:45:56;100467.41;;;34.62;38.26
6567;BME280;3317;43.994;22.878;2022-08-27T07:48:26;100473.09;;;34.71;37.83
6567;BME280;3317;43.994;22.878;2022-08-27T07:50:55;100476.91;;;34.83;37.84
6567;BME280;3317;43.994;22.878;2022-08-27T07:53:22;100440.03;;;34.85;37.64
6567;BME280;3317;43.994;22.878;2022-08-27T07:55:49;100465.91;;;35.05;37.55
6567;BME280;3317;43.994;22.878;2022-08-27T07:58:16;100475.72;;;35.25;37.33
6567;BME280;3317;43.994;22.878;2022-08-27T08:00:44;100486.38;;;35.37;36.69
6567;BME280;3317;43.994;22.878;2022-08-27T08:03:11;100482.56;;;35.50;36.94
6567;BME280;3317;43.994;22.878;2022-08-27T08:05:40;100475.47;;;35.62;36.17
6567;BME280;3317;43.994;22.878;2022-08-27T08:08:09;100463.53;;;35.65;36.38
6567;BME280;3317;43.994;22.878;2022-08-27T08:10:37;100473.81;;;35.87;35.94
6567;BME280;3317;43.994;22.878;2022-08-27T08:13:05;100482.91;;;36.02;35.72
6567;BME280;3317;43.994;22.878;2022-08-27T08:15:33;100478.78;;;36.17;35.95
6567;BME280;3317;43.994;22.878;2022-08-27T08:18:00;100475.59;;;36.27;35.25
6567;BME280;3317;43.994;22.878;2022-08-27T08:20:27;100460.81;;;36.30;35.31
6567;BME280;3317;43.994;22.878;2022-08-27T08:22:54;100474.16;;;36.51;35.50
6567;BME280;3317;43.994;22.878;2022-08-27T08:25:23;100462.38;;;36.58;34.73
6567;BME280;3317;43.994;22.878;2022-08-27T08:27:50;100469.47;;;36.73;35.13
6567;BME280;3317;43.994;22.878;2022-08-27T08:30:17;100475.44;;;36.80;34.15
6567;BME280;3317;43.994;22.878;2022-08-27T08:32:44;100471.38;;;36.90;33.29
6567;BME280;3317;43.994;22.878;2022-08-27T08:35:11;100444.38;;;36.80;33.26
6567;BME280;3317;43.994;22.878;2022-08-27T08:37:38;100473.59;;;37.14;33.02
6567;BME280;3317;43.994;22.878;2022-08-27T08:40:08;100481.13;;;37.31;33.02
6567;BME280;3317;43.994;22.878;2022-08-27T08:42:42;100479.66;;;37.55;34.03
6567;BME280;3317;43.994;22.878;2022-08-27T08:45:13;100478.19;;;37.70;33.41
6567;BME280;3317;43.994;22.878;2022-08-27T08:47:45;100477.09;;;37.84;32.38
6567;BME280;3317;43.994;22.878;2022-08-27T08:50:18;100473.78;;;38.03;32.93
6567;BME280;3317;43.994;22.878;2022-08-27T08:52:51;100467.91;;;38.21;32.95
6567;BME280;3317;43.994;22.878;2022-08-27T08:55:31;100475.72;;;38.36;32.37
6567;BME280;3317;43.994;22.878;2022-08-27T08:58:20;100480.38;;;38.53;31.16
6567;BME280;3317;43.994;22.878;2022-08-27T09:00:55;100470.13;;;38.61;30.77
6567;BME280;3317;43.994;22.878;2022-08-27T09:03:22;100469.09;;;38.78;31.68
6567;BME280;3317;43.994;22.878;2022-08-27T09:05:54;100468.03;;;38.95;30.80
6567;BME280;3317;43.994;22.878;2022-08-27T09:08:27;100472.38;;;38.80;30.12
6567;BME280;3317;43.994;22.878;2022-08-27T09:11:04;100468.84;;;38.83;30.66
6567;BME280;3317;43.994;22.878;2022-08-27T09:13:36;100473.59;;;39.04;31.46
6567;BME280;3317;43.994;22.878;2022-08-27T09:16:05;100466.38;;;39.19;31.04
6567;BME280;3317;43.994;22.878;2022-08-27T09:18:34;100468.34;;;39.31;30.11
6567;BME280;3317;43.994;22.878;2022-08-27T09:21:08;100467.84;;;39.54;31.16
6567;BME280;3317;43.994;22.878;2022-08-27T09:23:42;100414.50;;;39.43;30.35
6567;BME280;3317;43.994;22.878;2022-08-27T09:26:18;100454.53;;;39.70;28.87
6567;BME280;3317;43.994;22.878;2022-08-27T09:28:47;100458.09;;;39.67;28.61
6567;BME280;3317;43.994;22.878;2022-08-27T09:31:34;100459.34;;;39.54;28.41
6567;BME280;3317;43.994;22.878;2022-08-27T09:34:03;100456.66;;;39.45;28.18
6567;BME280;3317;43.994;22.878;2022-08-27T09:36:30;100450.03;;;39.41;27.94
6567;BME280;3317;43.994;22.878;2022-08-27T09:38:59;100459.13;;;39.47;28.65
6567;BME280;3317;43.994;22.878;2022-08-27T09:41:29;100456.75;;;39.36;27.46
6567;BME280;3317;43.994;22.878;2022-08-27T09:44:01;100451.78;;;39.46;28.47
6567;BME280;3317;43.994;22.878;2022-08-27T09:46:28;100457.88;;;39.60;27.67
6567;BME280;3317;43.994;22.878;2022-08-27T09:48:56;100455.22;;;39.80;28.30
6567;BME280;3317;43.994;22.878;2022-08-27T09:51:25;100458.59;;;39.98;28.01
6567;BME280;3317;43.994;22.878;2022-08-27T09:53:55;100441.69;;;40.18;27.94
6567;BME280;3317;43.994;22.878;2022-08-27T09:56:27;100442.47;;;40.47;28.05
6567;BME280;3317;43.994;22.878;2022-08-27T09:59:01;100445.72;;;40.65;26.96
6567;BME280;3317;43.994;22.878;2022-08-27T10:01:30;100446.66;;;40.85;27.31
6567;BME280;3317;43.994;22.878;2022-08-27T10:04:06;100447.81;;;41.00;27.36
6567;BME280;3317;43.994;22.878;2022-08-27T10:06:34;100438.88;;;41.18;28.18
6567;BME280;3317;43.994;22.878;2022-08-27T10:09:07;100446.56;;;41.53;28.04
6567;BME280;3317;43.994;22.878;2022-08-27T10:11:39;100442.47;;;41.90;26.83
6567;BME280;3317;43.994;22.878;2022-08-27T10:14:13;100436.50;;;42.18;25.90
6567;BME280;3317;43.994;22.878;2022-08-27T10:16:53;100438.38;;;42.34;25.09
6567;BME280;3317;43.994;22.878;2022-08-27T10:19:38;100439.34;;;42.42;24.79
6567;BME280;3317;43.994;22.878;2022-08-27T10:22:13;100429.31;;;42.48;25.22
6567;BME280;3317;43.994;22.878;2022-08-27T10:24:53;100443.28;;;42.57;25.26
6567;BME280;3317;43.994;22.878;2022-08-27T10:27:26;100435.94;;;42.56;24.30
6567;BME280;3317;43.994;22.878;2022-08-27T10:30:02;100427.28;;;42.48;25.31
6567;BME280;3317;43.994;22.878;2022-08-27T10:35:26;100443.19;;;42.49;25.26
6567;BME280;3317;43.994;22.878;2022-08-27T10:38:06;100442.75;;;42.47;24.04
6567;BME280;3317;43.994;22.878;2022-08-27T10:40:39;100441.44;;;42.45;25.01
6567;BME280;3317;43.994;22.878;2022-08-27T10:43:34;100433.66;;;42.42;23.15
6567;BME280;3317;43.994;22.878;2022-08-27T10:46:28;100445.28;;;42.33;24.08
6567;BME280;3317;43.994;22.878;2022-08-27T10:49:03;100442.00;;;42.31;25.04
6567;BME280;3317;43.994;22.878;2022-08-27T10:51:38;100432.81;;;42.41;24.54
6567;BME280;3317;43.994;22.878;2022-08-27T10:54:16;100435.06;;;42.52;24.03
6567;BME280;3317;43.994;22.878;2022-08-27T10:56:53;100434.47;;;42.42;22.98
6567;BME280;3317;43.994;22.878;2022-08-27T10:59:28;100437.22;;;41.92;21.99
6567;BME280;3317;43.994;22.878;2022-08-27T11:02:06;100433.78;;;41.63;22.04
6567;BME280;3317;43.994;22.878;2022-08-27T11:04:37;100433.19;;;41.53;22.26
6567;BME280;3317;43.994;22.878;2022-08-27T11:07:10;100393.59;;;41.25;23.03
6567;BME280;3317;43.994;22.878;2022-08-27T11:09:45;100428.31;;;41.54;21.28
6567;BME280;3317;43.994;22.878;2022-08-27T11:12:16;100429.94;;;41.55;20.95
6567;BME280;3317;43.994;22.878;2022-08-27T11:14:49;100426.00;;;41.40;19.69
6567;BME280;3317;43.994;22.878;2022-08-27T11:17:24;100418.88;;;41.30;19.54
6567;BME280;3317;43.994;22.878;2022-08-27T11:19:58;100413.59;;;41.13;20.06
6567;BME280;3317;43.994;22.878;2022-08-27T11:22:31;100414.69;;;41.24;20.80
6567;BME280;3317;43.994;22.878;2022-08-27T11:25:06;100412.91;;;41.35;21.25
6567;BME280;3317;43.994;22.878;2022-08-27T11:27:35;100415.88;;;41.43;20.13
6567;BME280;3317;43.994;22.878;2022-08-27T11:30:06;100414.47;;;41.52;20.88
6567;BME280;3317;43.994;22.878;2022-08-27T11:32:47;100412.88;;;41.55;20.65
6567;BME280;3317;43.994;22.878;2022-08-27T11:35:18;100399.19;;;41.61;19.29
6567;BME280;3317;43.994;22.878;2022-08-27T11:38:07;100405.88;;;41.69;19.89
6567;BME280;3317;43.994;22.878;2022-08-27T11:40:53;100406.34;;;41.71;20.40
6567;BME280;3317;43.994;22.878;2022-08-27T11:43:25;100402.34;;;41.75;20.51
6567;BME280;3317;43.994;22.878;2022-08-27T11:45:56;100396.28;;;41.77;20.35
6567;BME280;3317;43.994;22.878;2022-08-27T11:48:27;100404.81;;;41.77;20.63
6567;BME280;3317;43.994;22.878;2022-08-27T11:50:56;100402.66;;;41.70;20.07
6567;BME280;3317;43.994;22.878;2022-08-27T11:53:27;100399.38;;;41.68;20.76
6567;BME280;3317;43.994;22.878;2022-08-27T11:55:55;100389.50;;;41.62;20.11
6567;BME280;3317;43.994;22.878;2022-08-27T11:58:26;100380.72;;;41.51;20.40
6567;BME280;3317;43.994;22.878;2022-08-27T12:00:54;100374.00;;;41.39;19.90
6567;BME280;3317;43.994;22.878;2022-08-27T12:03:26;100381.03;;;41.46;21.12
6567;BME280;3317;43.994;22.878;2022-08-27T12:06:08;100386.22;;;41.40;20.11
6567;BME280;3317;43.994;22.878;2022-08-27T12:08:36;100380.38;;;41.33;20.69
6567;BME280;3317;43.994;22.878;2022-08-27T12:11:27;100382.75;;;41.31;20.49
6567;BME280;3317;43.994;22.878;2022-08-27T12:14:07;100358.88;;;41.16;20.50
6567;BME280;3317;43.994;22.878;2022-08-27T12:16:44;100368.50;;;41.11;20.29
6567;BME280;3317;43.994;22.878;2022-08-27T12:19:28;100363.50;;;41.04;20.83
6567;BME280;3317;43.994;22.878;2022-08-27T12:22:15;100361.63;;;40.92;20.61
6567;BME280;3317;43.994;22.878;2022-08-27T12:24:51;100362.19;;;40.82;20.87
6567;BME280;3317;43.994;22.878;2022-08-27T12:27:28;100351.31;;;40.68;20.85
6567;BME280;3317;43.994;22.878;2022-08-27T12:29:58;100336.81;;;40.53;21.46
6567;BME280;3317;43.994;22.878;2022-08-27T12:32:29;100355.09;;;40.56;21.10
6567;BME280;3317;43.994;22.878;2022-08-27T12:35:07;100362.16;;;40.46;20.75
6567;BME280;3317;43.994;22.878;2022-08-27T12:37:37;100342.19;;;40.26;20.69
6567;BME280;3317;43.994;22.878;2022-08-27T12:40:12;100357.84;;;40.20;20.64
6567;BME280;3317;43.994;22.878;2022-08-27T12:42:42;100355.75;;;40.01;19.32
6567;BME280;3317;43.994;22.878;2022-08-27T12:45:20;100349.66;;;39.70;19.59
6567;BME280;3317;43.994;22.878;2022-08-27T12:47:47;100356.38;;;39.50;20.22
6567;BME280;3317;43.994;22.878;2022-08-27T12:50:22;100350.75;;;39.37;20.90
6567;BME280;3317;43.994;22.878;2022-08-27T12:53:09;100339.31;;;39.34;21.86
6567;BME280;3317;43.994;22.878;2022-08-27T12:55:53;100342.13;;;39.34;22.10
6567;BME280;3317;43.994;22.878;2022-08-27T12:58:31;100341.09;;;39.26;21.94
6567;BME280;3317;43.994;22.878;2022-08-27T13:03:57;100328.94;;;39.25;22.45
6567;BME280;3317;43.994;22.878;2022-08-27T13:06:29;100337.59;;;39.17;21.35
6567;BME280;3317;43.994;22.878;2022-08-27T13:08:58;100328.97;;;39.13;22.52
6567;BME280;3317;43.994;22.878;2022-08-27T13:11:28;100336.19;;;39.10;22.82
6567;BME280;3317;43.994;22.878;2022-08-27T13:14:06;100328.69;;;39.02;22.11
6567;BME280;3317;43.994;22.878;2022-08-27T13:16:35;100330.59;;;38.85;20.19
6567;BME280;3317;43.994;22.878;2022-08-27T13:19:03;100270.63;;;38.17;19.61
6567;BME280;3317;43.994;22.878;2022-08-27T13:21:34;100327.41;;;38.25;19.79
6567;BME280;3317;43.994;22.878;2022-08-27T13:24:02;100322.47;;;38.09;20.64